sensor_id;sensor_type;location;lat;lon;timestamp;temperature;humidity
67279;DHT22;54193;53.746;10.058;2022-07-23T00:01:38;15.27;77.56
67279;DHT22;54193;53.746;10.058;2022-07-23T00:04:24;15.21;77.76
67279;DHT22;54193;53.746;10.058;2022-07-23T00:07:10;15.19;77.87
67279;DHT22;54193;53.746;10.058;2022-07-23T00:09:55;15.24;77.84
67279;DHT22;54193;53.746;10.058;2022-07-23T00:12:41;15.22;78.10
67279;DHT22;54193;53.746;10.058;2022-07-23T00:15:27;15.24;77.88
67279;DHT22;54193;53.746;10.058;2022-07-23T00:18:14;15.22;77.52
67279;DHT22;54193;53.746;10.058;2022-07-23T00:21:00;15.21;78.08
67279;DHT22;54193;53.746;10.058;2022-07-23T00:23:45;15.14;77.96
67279;DHT22;54193;53.746;10.058;2022-07-23T00:26:31;15.07;78.11
67279;DHT22;54193;53.746;10.058;2022-07-23T00:29:17;15.04;78.35
67279;DHT22;54193;53.746;10.058;2022-07-23T00:32:03;14.95;78.43
67279;DHT22;54193;53.746;10.058;2022-07-23T00:34:48;15.00;79.27
67279;DHT22;54193;53.746;10.058;2022-07-23T00:37:34;15.00;78.98
67279;DHT22;54193;53.746;10.058;2022-07-23T00:40:20;14.94;78.68
67279;DHT22;54193;53.746;10.058;2022-07-23T00:43:06;14.97;79.01
67279;DHT22;54193;53.746;10.058;2022-07-23T00:45:52;14.88;78.69
67279;DHT22;54193;53.746;10.058;2022-07-23T00:48:37;14.92;79.05
67279;DHT22;54193;53.746;10.058;2022-07-23T00:51:23;14.97;78.50
67279;DHT22;54193;53.746;10.058;2022-07-23T00:54:09;14.95;78.56
67279;DHT22;54193;53.746;10.058;2022-07-23T00:56:55;14.81;78.71
67279;DHT22;54193;53.746;10.058;2022-07-23T00:59:41;14.81;79.00
67279;DHT22;54193;53.746;10.058;2022-07-23T01:02:27;14.79;78.94
67279;DHT22;54193;53.746;10.058;2022-07-23T01:05:13;14.77;78.52
67279;DHT22;54193;53.746;10.058;2022-07-23T01:07:58;14.83;78.43
67279;DHT22;54193;53.746;10.058;2022-07-23T01:10:44;14.87;78.82
67279;DHT22;54193;53.746;10.058;2022-07-23T01:13:31;14.84;78.06
67279;DHT22;54193;53.746;10.058;2022-07-23T01:16:17;14.85;78.73
67279;DHT22;54193;53.746;10.058;2022-07-23T01:19:02;14.69;78.65
67279;DHT22;54193;53.746;10.058;2022-07-23T01:21:53;14.69;78.98
67279;DHT22;54193;53.746;10.058;2022-07-23T01:24:38;14.55;79.05
67279;DHT22;54193;53.746;10.058;2022-07-23T01:27:24;14.49;79.47
67279;DHT22;54193;53.746;10.058;2022-07-23T01:30:10;14.43;79.14
67279;DHT22;54193;53.746;10.058;2022-07-23T01:32:56;14.24;79.67
67279;DHT22;54193;53.746;10.058;2022-07-23T01:35:41;14.25;80.04
67279;DHT22;54193;53.746;10.058;2022-07-23T01:38:27;14.21;79.97
67279;DHT22;54193;53.746;10.058;2022-07-23T01:41:13;14.01;80.55
67279;DHT22;54193;53.746;10.058;2022-07-23T01:43:59;14.05;80.66
67279;DHT22;54193;53.746;10.058;2022-07-23T01:46:44;13.95;80.62
67279;DHT22;54193;53.746;10.058;2022-07-23T01:49:30;13.74;81.14
67279;DHT22;54193;53.746;10.058;2022-07-23T01:52:15;13.66;81.44
67279;DHT22;54193;53.746;10.058;2022-07-23T01:55:02;13.60;81.89
67279;DHT22;54193;53.746;10.058;2022-07-23T01:57:47;13.61;82.10
67279;DHT22;54193;53.746;10.058;2022-07-23T02:00:35;13.53;82.23
67279;DHT22;54193;53.746;10.058;2022-07-23T02:03:21;13.43;82.67
67279;DHT22;54193;53.746;10.058;2022-07-23T02:06:07;13.40;83.01
67279;DHT22;54193;53.746;10.058;2022-07-23T02:08:52;13.53;83.00
67279;DHT22;54193;53.746;10.058;2022-07-23T02:11:38;13.56;82.68
67279;DHT22;54193;53.746;10.058;2022-07-23T02:14:25;13.66;82.65
67279;DHT22;54193;53.746;10.058;2022-07-23T02:17:11;13.77;82.05
67279;DHT22;54193;53.746;10.058;2022-07-23T02:19:57;13.82;82.10
67279;DHT22;54193;53.746;10.058;2022-07-23T02:22:42;13.94;82.06
67279;DHT22;54193;53.746;10.058;2022-07-23T02:25:28;14.02;81.44
67279;DHT22;54193;53.746;10.058;2022-07-23T02:28:14;14.04;80.88
67279;DHT22;54193;53.746;10.058;2022-07-23T02:31:00;14.15;80.85
67279;DHT22;54193;53.746;10.058;2022-07-23T02:33:46;14.14;81.05
67279;DHT22;54193;53.746;10.058;2022-07-23T02:36:31;14.26;81.36
67279;DHT22;54193;53.746;10.058;2022-07-23T02:39:17;14.25;80.83
67279;DHT22;54193;53.746;10.058;2022-07-23T02:42:05;14.36;80.67
67279;DHT22;54193;53.746;10.058;2022-07-23T02:44:51;14.42;80.82
67279;DHT22;54193;53.746;10.058;2022-07-23T02:47:37;14.45;80.79
67279;DHT22;54193;53.746;10.058;2022-07-23T02:50:23;14.49;80.81
67279;DHT22;54193;53.746;10.058;2022-07-23T02:53:08;14.50;80.28
67279;DHT22;54193;53.746;10.058;2022-07-23T02:55:54;14.53;80.18
67279;DHT22;54193;53.746;10.058;2022-07-23T02:58:39;14.52;79.86
67279;DHT22;54193;53.746;10.058;2022-07-23T03:01:25;14.55;80.39
67279;DHT22;54193;53.746;10.058;2022-07-23T03:04:11;14.56;79.99
67279;DHT22;54193;53.746;10.058;2022-07-23T03:06:57;14.50;79.97
67279;DHT22;54193;53.746;10.058;2022-07-23T03:09:43;14.52;80.26
67279;DHT22;54193;53.746;10.058;2022-07-23T03:12:29;14.57;79.78
67279;DHT22;54193;53.746;10.058;2022-07-23T03:15:14;14.57;80.19
67279;DHT22;54193;53.746;10.058;2022-07-23T03:18:00;14.63;79.76
67279;DHT22;54193;53.746;10.058;2022-07-23T03:20:46;14.52;80.22
67279;DHT22;54193;53.746;10.058;2022-07-23T03:23:31;14.63;79.82
67279;DHT22;54193;53.746;10.058;2022-07-23T03:26:17;14.60;80.05
67279;DHT22;54193;53.746;10.058;2022-07-23T03:29:03;14.57;79.71
67279;DHT22;54193;53.746;10.058;2022-07-23T03:31:50;14.47;79.97
67279;DHT22;54193;53.746;10.058;2022-07-23T03:34:36;14.52;80.32
67279;DHT22;54193;53.746;10.058;2022-07-23T03:37:21;14.59;80.33
67279;DHT22;54193;53.746;10.058;2022-07-23T03:40:07;14.67;79.89
67279;DHT22;54193;53.746;10.058;2022-07-23T03:42:53;14.62;79.76
67279;DHT22;54193;53.746;10.058;2022-07-23T03:45:39;14.60;79.75
67279;DHT22;54193;53.746;10.058;2022-07-23T03:48:24;14.70;79.38
67279;DHT22;54193;53.746;10.058;2022-07-23T03:51:10;14.79;79.36
67279;DHT22;54193;53.746;10.058;2022-07-23T03:53:56;14.72;78.77
67279;DHT22;54193;53.746;10.058;2022-07-23T03:56:42;14.72;79.56
67279;DHT22;54193;53.746;10.058;2022-07-23T03:59:28;14.77;79.34
67279;DHT22;54193;53.746;10.058;2022-07-23T04:02:13;14.84;79.36
67279;DHT22;54193;53.746;10.058;2022-07-23T04:04:59;14.92;79.33
67279;DHT22;54193;53.746;10.058;2022-07-23T04:07:47;14.95;79.34
67279;DHT22;54193;53.746;10.058;2022-07-23T04:10:32;15.01;78.99
67279;DHT22;54193;53.746;10.058;2022-07-23T04:13:18;15.00;78.53
67279;DHT22;54193;53.746;10.058;2022-07-23T04:16:04;15.15;78.82
67279;DHT22;54193;53.746;10.058;2022-07-23T04:18:50;15.27;78.12
67279;DHT22;54193;53.746;10.058;2022-07-23T04:21:37;15.21;77.67
67279;DHT22;54193;53.746;10.058;2022-07-23T04:24:24;15.28;77.51
67279;DHT22;54193;53.746;10.058;2022-07-23T04:27:10;15.35;77.44
67279;DHT22;54193;53.746;10.058;2022-07-23T04:29:55;15.36;77.27
67279;DHT22;54193;53.746;10.058;2022-07-23T04:32:41;15.48;77.11
67279;DHT22;54193;53.746;10.058;2022-07-23T04:35:27;15.42;76.76
67279;DHT22;54193;53.746;10.058;2022-07-23T04:38:13;15.38;77.13
67279;DHT22;54193;53.746;10.058;2022-07-23T04:40:58;15.48;77.00
67279;DHT22;54193;53.746;10.058;2022-07-23T04:43:44;15.43;76.93
67279;DHT22;54193;53.746;10.058;2022-07-23T04:46:30;15.40;77.02
67279;DHT22;54193;53.746;10.058;2022-07-23T04:49:15;15.50;77.35
67279;DHT22;54193;53.746;10.058;2022-07-23T04:52:01;15.35;77.51
67279;DHT22;54193;53.746;10.058;2022-07-23T04:54:47;15.36;77.17
67279;DHT22;54193;53.746;10.058;2022-07-23T04:57:33;15.31;77.79
67279;DHT22;54193;53.746;10.058;2022-07-23T05:00:18;15.28;77.32
67279;DHT22;54193;53.746;10.058;2022-07-23T05:03:04;15.25;76.94
67279;DHT22;54193;53.746;10.058;2022-07-23T05:05:49;15.04;76.92
67279;DHT22;54193;53.746;10.058;2022-07-23T05:08:35;15.17;76.80
67279;DHT22;54193;53.746;10.058;2022-07-23T05:11:21;15.17;76.51
67279;DHT22;54193;53.746;10.058;2022-07-23T05:14:06;15.25;77.10
67279;DHT22;54193;53.746;10.058;2022-07-23T05:16:52;15.28;76.73
67279;DHT22;54193;53.746;10.058;2022-07-23T05:19:38;15.27;76.80
67279;DHT22;54193;53.746;10.058;2022-07-23T05:22:23;15.28;76.60
67279;DHT22;54193;53.746;10.058;2022-07-23T05:25:09;15.24;76.39
67279;DHT22;54193;53.746;10.058;2022-07-23T05:27:54;15.28;76.37
67279;DHT22;54193;53.746;10.058;2022-07-23T05:30:40;15.27;76.09
67279;DHT22;54193;53.746;10.058;2022-07-23T05:33:26;15.34;76.10
67279;DHT22;54193;53.746;10.058;2022-07-23T05:36:11;15.36;76.28
67279;DHT22;54193;53.746;10.058;2022-07-23T05:38:57;15.36;76.27
67279;DHT22;54193;53.746;10.058;2022-07-23T05:41:43;15.48;76.52
67279;DHT22;54193;53.746;10.058;2022-07-23T05:44:30;15.43;75.52
67279;DHT22;54193;53.746;10.058;2022-07-23T05:47:16;15.38;75.76
67279;DHT22;54193;53.746;10.058;2022-07-23T05:50:03;15.53;76.55
67279;DHT22;54193;53.746;10.058;2022-07-23T05:52:50;15.59;76.65
67279;DHT22;54193;53.746;10.058;2022-07-23T05:55:36;15.48;75.95
67279;DHT22;54193;53.746;10.058;2022-07-23T05:58:22;15.36;76.36
67279;DHT22;54193;53.746;10.058;2022-07-23T06:01:08;15.25;77.61
67279;DHT22;54193;53.746;10.058;2022-07-23T06:03:53;15.35;77.46
67279;DHT22;54193;53.746;10.058;2022-07-23T06:06:39;15.36;77.16
67279;DHT22;54193;53.746;10.058;2022-07-23T06:09:24;15.32;77.72
67279;DHT22;54193;53.746;10.058;2022-07-23T06:12:10;15.43;75.73
67279;DHT22;54193;53.746;10.058;2022-07-23T06:14:56;15.45;76.33
67279;DHT22;54193;53.746;10.058;2022-07-23T06:17:42;15.50;75.66
67279;DHT22;54193;53.746;10.058;2022-07-23T06:20:27;15.53;74.87
67279;DHT22;54193;53.746;10.058;2022-07-23T06:23:19;15.66;75.37
67279;DHT22;54193;53.746;10.058;2022-07-23T06:26:05;15.62;75.00
67279;DHT22;54193;53.746;10.058;2022-07-23T06:28:50;15.73;75.64
67279;DHT22;54193;53.746;10.058;2022-07-23T06:31:36;15.74;74.91
67279;DHT22;54193;53.746;10.058;2022-07-23T06:34:22;15.76;75.23
67279;DHT22;54193;53.746;10.058;2022-07-23T06:37:08;16.03;74.94
67279;DHT22;54193;53.746;10.058;2022-07-23T06:39:53;16.03;74.76
67279;DHT22;54193;53.746;10.058;2022-07-23T06:42:41;16.07;74.49
67279;DHT22;54193;53.746;10.058;2022-07-23T06:45:26;15.93;75.03
67279;DHT22;54193;53.746;10.058;2022-07-23T06:48:12;15.82;75.03
67279;DHT22;54193;53.746;10.058;2022-07-23T06:50:58;15.96;75.96
67279;DHT22;54193;53.746;10.058;2022-07-23T06:53:43;15.97;75.05
67279;DHT22;54193;53.746;10.058;2022-07-23T06:56:29;16.08;75.09
67279;DHT22;54193;53.746;10.058;2022-07-23T06:59:15;16.20;74.44
67279;DHT22;54193;53.746;10.058;2022-07-23T07:02:00;16.90;72.45
67279;DHT22;54193;53.746;10.058;2022-07-23T07:04:46;17.63;69.61
67279;DHT22;54193;53.746;10.058;2022-07-23T07:07:33;18.17;69.02
67279;DHT22;54193;53.746;10.058;2022-07-23T07:10:18;17.79;68.84
67279;DHT22;54193;53.746;10.058;2022-07-23T07:13:06;17.83;69.02
67279;DHT22;54193;53.746;10.058;2022-07-23T07:15:51;17.83;69.65
67279;DHT22;54193;53.746;10.058;2022-07-23T07:18:37;17.73;69.40
67279;DHT22;54193;53.746;10.058;2022-07-23T07:21:23;17.39;70.08
67279;DHT22;54193;53.746;10.058;2022-07-23T07:24:10;17.30;71.27
67279;DHT22;54193;53.746;10.058;2022-07-23T07:26:55;17.65;70.48
67279;DHT22;54193;53.746;10.058;2022-07-23T07:29:41;17.55;70.36
67279;DHT22;54193;53.746;10.058;2022-07-23T07:32:26;17.32;71.24
67279;DHT22;54193;53.746;10.058;2022-07-23T07:35:12;17.45;71.04
67279;DHT22;54193;53.746;10.058;2022-07-23T07:37:59;17.42;69.91
67279;DHT22;54193;53.746;10.058;2022-07-23T07:40:45;17.71;70.81
67279;DHT22;54193;53.746;10.058;2022-07-23T07:43:31;17.80;69.45
67279;DHT22;54193;53.746;10.058;2022-07-23T07:46:17;17.76;69.89
67279;DHT22;54193;53.746;10.058;2022-07-23T07:49:02;17.79;69.51
67279;DHT22;54193;53.746;10.058;2022-07-23T07:51:48;17.68;70.53
67279;DHT22;54193;53.746;10.058;2022-07-23T07:54:33;18.01;68.51
67279;DHT22;54193;53.746;10.058;2022-07-23T07:57:19;18.59;68.64
67279;DHT22;54193;53.746;10.058;2022-07-23T08:00:07;18.96;67.52
67279;DHT22;54193;53.746;10.058;2022-07-23T08:02:54;19.00;67.23
67279;DHT22;54193;53.746;10.058;2022-07-23T08:05:40;19.27;67.03
67279;DHT22;54193;53.746;10.058;2022-07-23T08:08:25;18.45;66.94
67279;DHT22;54193;53.746;10.058;2022-07-23T08:11:11;18.56;66.02
67279;DHT22;54193;53.746;10.058;2022-07-23T08:13:58;18.54;65.77
67279;DHT22;54193;53.746;10.058;2022-07-23T08:16:44;18.23;66.86
67279;DHT22;54193;53.746;10.058;2022-07-23T08:19:29;18.38;66.72
67279;DHT22;54193;53.746;10.058;2022-07-23T08:22:15;19.26;65.66
67279;DHT22;54193;53.746;10.058;2022-07-23T08:25:01;19.06;65.31
67279;DHT22;54193;53.746;10.058;2022-07-23T08:27:46;18.73;66.87
67279;DHT22;54193;53.746;10.058;2022-07-23T08:30:35;19.02;65.43
67279;DHT22;54193;53.746;10.058;2022-07-23T08:33:21;19.54;65.39
67279;DHT22;54193;53.746;10.058;2022-07-23T08:36:07;19.86;64.41
67279;DHT22;54193;53.746;10.058;2022-07-23T08:38:53;19.61;65.71
67279;DHT22;54193;53.746;10.058;2022-07-23T08:41:40;18.81;66.34
67279;DHT22;54193;53.746;10.058;2022-07-23T08:44:27;18.07;69.69
67279;DHT22;54193;53.746;10.058;2022-07-23T08:47:14;18.43;69.54
67279;DHT22;54193;53.746;10.058;2022-07-23T08:50:01;18.48;67.34
67279;DHT22;54193;53.746;10.058;2022-07-23T08:52:48;18.89;65.87
67279;DHT22;54193;53.746;10.058;2022-07-23T08:55:34;19.79;65.34
67279;DHT22;54193;53.746;10.058;2022-07-23T08:58:21;19.99;62.54
67279;DHT22;54193;53.746;10.058;2022-07-23T09:01:07;19.55;63.15
67279;DHT22;54193;53.746;10.058;2022-07-23T09:03:52;19.43;64.93
67279;DHT22;54193;53.746;10.058;2022-07-23T09:06:39;19.86;62.44
67279;DHT22;54193;53.746;10.058;2022-07-23T09:09:24;19.17;63.90
67279;DHT22;54193;53.746;10.058;2022-07-23T09:12:15;18.68;64.89
67279;DHT22;54193;53.746;10.058;2022-07-23T09:15:08;18.30;66.35
67279;DHT22;54193;53.746;10.058;2022-07-23T09:17:54;18.07;67.93
67279;DHT22;54193;53.746;10.058;2022-07-23T09:20:40;17.53;69.78
67279;DHT22;54193;53.746;10.058;2022-07-23T09:23:37;17.49;70.66
67279;DHT22;54193;53.746;10.058;2022-07-23T09:26:35;17.76;69.87
67279;DHT22;54193;53.746;10.058;2022-07-23T09:29:23;18.16;70.15
67279;DHT22;54193;53.746;10.058;2022-07-23T09:32:13;17.87;69.43
67279;DHT22;54193;53.746;10.058;2022-07-23T09:34:59;17.90;70.16
67279;DHT22;54193;53.746;10.058;2022-07-23T09:38:01;17.73;70.58
67279;DHT22;54193;53.746;10.058;2022-07-23T09:41:05;17.38;70.32
67279;DHT22;54193;53.746;10.058;2022-07-23T09:43:55;17.20;70.38
67279;DHT22;54193;53.746;10.058;2022-07-23T09:46:42;16.93;70.66
67279;DHT22;54193;53.746;10.058;2022-07-23T09:49:28;17.10;70.83
67279;DHT22;54193;53.746;10.058;2022-07-23T09:52:26;17.14;70.59
67279;DHT22;54193;53.746;10.058;2022-07-23T09:55:11;17.25;69.56
67279;DHT22;54193;53.746;10.058;2022-07-23T09:57:57;17.27;68.86
67279;DHT22;54193;53.746;10.058;2022-07-23T10:00:45;17.38;68.44
67279;DHT22;54193;53.746;10.058;2022-07-23T10:03:31;17.61;67.47
67279;DHT22;54193;53.746;10.058;2022-07-23T10:06:17;17.90;67.23
67279;DHT22;54193;53.746;10.058;2022-07-23T10:09:02;17.90;66.29
67279;DHT22;54193;53.746;10.058;2022-07-23T10:11:48;18.38;66.36
67279;DHT22;54193;53.746;10.058;2022-07-23T10:14:35;18.66;65.83
67279;DHT22;54193;53.746;10.058;2022-07-23T10:17:22;18.69;67.00
67279;DHT22;54193;53.746;10.058;2022-07-23T10:20:09;18.48;65.85
67279;DHT22;54193;53.746;10.058;2022-07-23T10:23:02;18.49;67.15
67279;DHT22;54193;53.746;10.058;2022-07-23T10:26:16;18.13;65.76
67279;DHT22;54193;53.746;10.058;2022-07-23T10:32:00;17.66;66.61
67279;DHT22;54193;53.746;10.058;2022-07-23T10:34:58;18.01;67.22
67279;DHT22;54193;53.746;10.058;2022-07-23T10:37:47;18.43;66.03
67279;DHT22;54193;53.746;10.058;2022-07-23T10:40:34;18.65;64.86
67279;DHT22;54193;53.746;10.058;2022-07-23T10:43:20;19.23;64.91
67279;DHT22;54193;53.746;10.058;2022-07-23T10:46:35;19.68;62.23
67279;DHT22;54193;53.746;10.058;2022-07-23T10:49:24;19.90;60.51
67279;DHT22;54193;53.746;10.058;2022-07-23T10:57:50;20.10;62.58
67279;DHT22;54193;53.746;10.058;2022-07-23T11:00:36;20.88;60.23
67279;DHT22;54193;53.746;10.058;2022-07-23T11:03:34;20.58;58.51
67279;DHT22;54193;53.746;10.058;2022-07-23T11:06:23;20.43;59.12
67279;DHT22;54193;53.746;10.058;2022-07-23T11:09:38;20.23;58.92
67279;DHT22;54193;53.746;10.058;2022-07-23T11:15:11;19.85;58.13
67279;DHT22;54193;53.746;10.058;2022-07-23T11:18:00;20.43;59.96
67279;DHT22;54193;53.746;10.058;2022-07-23T11:20:46;20.41;59.43
67279;DHT22;54193;53.746;10.058;2022-07-23T11:26:50;20.33;60.04
67279;DHT22;54193;53.746;10.058;2022-07-23T11:29:40;20.72;60.00
67279;DHT22;54193;53.746;10.058;2022-07-23T11:32:31;20.81;59.50
67279;DHT22;54193;53.746;10.058;2022-07-23T11:35:24;20.23;60.49
67279;DHT22;54193;53.746;10.058;2022-07-23T11:38:16;20.54;59.53
67279;DHT22;54193;53.746;10.058;2022-07-23T11:41:02;20.36;58.77
67279;DHT22;54193;53.746;10.058;2022-07-23T11:43:48;20.63;58.47
67279;DHT22;54193;53.746;10.058;2022-07-23T11:46:33;20.02;59.39
67279;DHT22;54193;53.746;10.058;2022-07-23T11:49:19;19.87;58.26
67279;DHT22;54193;53.746;10.058;2022-07-23T11:52:12;20.20;59.49
67279;DHT22;54193;53.746;10.058;2022-07-23T11:55:01;19.96;58.29
67279;DHT22;54193;53.746;10.058;2022-07-23T11:57:47;20.29;59.02
67279;DHT22;54193;53.746;10.058;2022-07-23T12:00:33;20.09;58.83
67279;DHT22;54193;53.746;10.058;2022-07-23T12:03:18;20.20;60.11
67279;DHT22;54193;53.746;10.058;2022-07-23T12:06:04;20.16;60.01
67279;DHT22;54193;53.746;10.058;2022-07-23T12:08:50;20.39;60.28
67279;DHT22;54193;53.746;10.058;2022-07-23T12:11:36;20.44;59.45
67279;DHT22;54193;53.746;10.058;2022-07-23T12:14:21;20.36;59.21
67279;DHT22;54193;53.746;10.058;2022-07-23T12:17:08;20.17;60.56
67279;DHT22;54193;53.746;10.058;2022-07-23T12:19:55;19.76;60.94
67279;DHT22;54193;53.746;10.058;2022-07-23T12:22:44;19.28;62.49
67279;DHT22;54193;53.746;10.058;2022-07-23T12:25:32;18.92;62.71
67279;DHT22;54193;53.746;10.058;2022-07-23T12:28:29;19.67;61.28
67279;DHT22;54193;53.746;10.058;2022-07-23T12:31:25;19.67;60.97
67279;DHT22;54193;53.746;10.058;2022-07-23T12:34:14;19.92;59.76
67279;DHT22;54193;53.746;10.058;2022-07-23T12:37:01;20.05;59.56
67279;DHT22;54193;53.746;10.058;2022-07-23T12:39:46;19.61;60.21
67279;DHT22;54193;53.746;10.058;2022-07-23T12:42:42;19.55;62.02
67279;DHT22;54193;53.746;10.058;2022-07-23T12:45:41;19.27;60.83
67279;DHT22;54193;53.746;10.058;2022-07-23T12:48:29;19.59;59.45
67279;DHT22;54193;53.746;10.058;2022-07-23T12:51:19;19.50;59.74
67279;DHT22;54193;53.746;10.058;2022-07-23T12:54:07;19.54;58.09
67279;DHT22;54193;53.746;10.058;2022-07-23T12:56:53;20.13;58.65
67279;DHT22;54193;53.746;10.058;2022-07-23T12:59:39;19.83;56.09
67279;DHT22;54193;53.746;10.058;2022-07-23T13:02:25;20.23;55.79
67279;DHT22;54193;53.746;10.058;2022-07-23T13:05:11;19.85;56.99
67279;DHT22;54193;53.746;10.058;2022-07-23T13:07:57;20.40;55.86
67279;DHT22;54193;53.746;10.058;2022-07-23T13:10:43;20.16;57.53
67279;DHT22;54193;53.746;10.058;2022-07-23T13:13:30;19.89;57.21
67279;DHT22;54193;53.746;10.058;2022-07-23T13:16:16;19.64;58.17
67279;DHT22;54193;53.746;10.058;2022-07-23T13:19:02;19.69;57.67
67279;DHT22;54193;53.746;10.058;2022-07-23T13:21:48;19.96;58.49
67279;DHT22;54193;53.746;10.058;2022-07-23T13:24:34;19.58;61.75
67279;DHT22;54193;53.746;10.058;2022-07-23T13:27:20;19.58;62.66
67279;DHT22;54193;53.746;10.058;2022-07-23T13:30:06;19.02;63.94
67279;DHT22;54193;53.746;10.058;2022-07-23T13:32:52;18.91;63.81
67279;DHT22;54193;53.746;10.058;2022-07-23T13:35:38;19.16;62.45
67279;DHT22;54193;53.746;10.058;2022-07-23T13:38:24;19.28;62.82
67279;DHT22;54193;53.746;10.058;2022-07-23T13:41:09;19.47;62.17
67279;DHT22;54193;53.746;10.058;2022-07-23T13:43:55;19.37;62.40
67279;DHT22;54193;53.746;10.058;2022-07-23T13:46:41;19.43;63.09
67279;DHT22;54193;53.746;10.058;2022-07-23T13:49:27;19.82;63.23
67279;DHT22;54193;53.746;10.058;2022-07-23T13:52:14;20.32;60.85
67279;DHT22;54193;53.746;10.058;2022-07-23T13:55:04;19.58;61.21
67279;DHT22;54193;53.746;10.058;2022-07-23T13:57:50;19.28;61.19
67279;DHT22;54193;53.746;10.058;2022-07-23T14:00:40;19.50;62.44
67279;DHT22;54193;53.746;10.058;2022-07-23T14:03:26;18.85;62.26
67279;DHT22;54193;53.746;10.058;2022-07-23T14:06:11;18.95;62.53
67279;DHT22;54193;53.746;10.058;2022-07-23T14:08:57;18.91;61.98
67279;DHT22;54193;53.746;10.058;2022-07-23T14:11:43;19.30;63.12
67279;DHT22;54193;53.746;10.058;2022-07-23T14:14:28;19.19;62.16
67279;DHT22;54193;53.746;10.058;2022-07-23T14:17:15;18.71;63.02
67279;DHT22;54193;53.746;10.058;2022-07-23T14:20:01;18.40;64.54
67279;DHT22;54193;53.746;10.058;2022-07-23T14:22:47;18.47;65.32
67279;DHT22;54193;53.746;10.058;2022-07-23T14:25:34;18.64;64.83
67279;DHT22;54193;53.746;10.058;2022-07-23T14:28:20;19.04;64.27
67279;DHT22;54193;53.746;10.058;2022-07-23T14:31:06;18.79;63.27
67279;DHT22;54193;53.746;10.058;2022-07-23T14:33:52;18.98;63.31
67279;DHT22;54193;53.746;10.058;2022-07-23T14:36:39;19.19;61.03
67279;DHT22;54193;53.746;10.058;2022-07-23T14:39:25;19.41;61.14
67279;DHT22;54193;53.746;10.058;2022-07-23T14:42:11;19.55;61.97
67279;DHT22;54193;53.746;10.058;2022-07-23T14:44:57;19.50;61.30
67279;DHT22;54193;53.746;10.058;2022-07-23T14:47:42;19.38;61.38
67279;DHT22;54193;53.746;10.058;2022-07-23T14:50:28;19.40;60.38
67279;DHT22;54193;53.746;10.058;2022-07-23T14:53:14;20.13;60.61
67279;DHT22;54193;53.746;10.058;2022-07-23T14:56:00;19.85;59.80
67279;DHT22;54193;53.746;10.058;2022-07-23T14:58:45;19.79;59.60
67279;DHT22;54193;53.746;10.058;2022-07-23T15:01:31;19.96;61.55
67279;DHT22;54193;53.746;10.058;2022-07-23T15:04:18;20.02;60.25
67279;DHT22;54193;53.746;10.058;2022-07-23T15:07:04;19.57;59.97
67279;DHT22;54193;53.746;10.058;2022-07-23T15:09:51;19.40;63.05
67279;DHT22;54193;53.746;10.058;2022-07-23T15:12:37;18.93;61.92
67279;DHT22;54193;53.746;10.058;2022-07-23T15:15:24;19.02;61.86
67279;DHT22;54193;53.746;10.058;2022-07-23T15:18:11;18.71;62.55
67279;DHT22;54193;53.746;10.058;2022-07-23T15:20:57;18.75;62.69
67279;DHT22;54193;53.746;10.058;2022-07-23T15:23:43;19.21;64.09
67279;DHT22;54193;53.746;10.058;2022-07-23T15:26:29;19.32;61.89
67279;DHT22;54193;53.746;10.058;2022-07-23T15:29:18;19.37;62.34
67279;DHT22;54193;53.746;10.058;2022-07-23T15:32:04;18.95;62.43
67279;DHT22;54193;53.746;10.058;2022-07-23T15:34:50;19.11;62.71
67279;DHT22;54193;53.746;10.058;2022-07-23T15:37:36;18.88;62.83
67279;DHT22;54193;53.746;10.058;2022-07-23T15:40:23;18.86;62.68
67279;DHT22;54193;53.746;10.058;2022-07-23T15:43:09;18.48;63.36
67279;DHT22;54193;53.746;10.058;2022-07-23T15:45:54;18.58;63.34
67279;DHT22;54193;53.746;10.058;2022-07-23T15:48:40;18.86;62.50
67279;DHT22;54193;53.746;10.058;2022-07-23T15:51:25;18.71;62.48
67279;DHT22;54193;53.746;10.058;2022-07-23T15:54:12;18.77;62.93
67279;DHT22;54193;53.746;10.058;2022-07-23T15:56:57;18.47;62.72
67279;DHT22;54193;53.746;10.058;2022-07-23T15:59:43;18.59;62.19
67279;DHT22;54193;53.746;10.058;2022-07-23T16:02:29;18.59;63.10
67279;DHT22;54193;53.746;10.058;2022-07-23T16:05:14;18.72;62.62
67279;DHT22;54193;53.746;10.058;2022-07-23T16:08:04;18.89;60.27
67279;DHT22;54193;53.746;10.058;2022-07-23T16:10:51;18.96;60.39
67279;DHT22;54193;53.746;10.058;2022-07-23T16:13:36;18.89;60.85
67279;DHT22;54193;53.746;10.058;2022-07-23T16:16:22;18.76;59.24
67279;DHT22;54193;53.746;10.058;2022-07-23T16:19:09;18.76;59.24
67279;DHT22;54193;53.746;10.058;2022-07-23T16:21:55;18.68;58.99
67279;DHT22;54193;53.746;10.058;2022-07-23T16:24:42;18.82;59.46
67279;DHT22;54193;53.746;10.058;2022-07-23T16:27:28;18.69;60.84
67279;DHT22;54193;53.746;10.058;2022-07-23T16:30:13;18.68;62.65
67279;DHT22;54193;53.746;10.058;2022-07-23T16:33:00;18.88;63.26
67279;DHT22;54193;53.746;10.058;2022-07-23T16:35:47;18.58;63.25
67279;DHT22;54193;53.746;10.058;2022-07-23T16:38:34;18.17;63.76
67279;DHT22;54193;53.746;10.058;2022-07-23T16:41:20;18.17;63.63
67279;DHT22;54193;53.746;10.058;2022-07-23T16:44:05;17.94;63.70
67279;DHT22;54193;53.746;10.058;2022-07-23T16:46:51;18.18;64.44
67279;DHT22;54193;53.746;10.058;2022-07-23T16:49:37;18.31;64.25
67279;DHT22;54193;53.746;10.058;2022-07-23T16:52:22;18.33;63.33
67279;DHT22;54193;53.746;10.058;2022-07-23T16:55:08;18.34;64.02
67279;DHT22;54193;53.746;10.058;2022-07-23T16:57:54;18.20;63.76
67279;DHT22;54193;53.746;10.058;2022-07-23T17:00:40;18.03;63.56
67279;DHT22;54193;53.746;10.058;2022-07-23T17:03:26;17.96;63.73
67279;DHT22;54193;53.746;10.058;2022-07-23T17:06:13;18.17;64.46
67279;DHT22;54193;53.746;10.058;2022-07-23T17:08:59;18.33;62.64
67279;DHT22;54193;53.746;10.058;2022-07-23T17:11:45;18.33;62.29
67279;DHT22;54193;53.746;10.058;2022-07-23T17:14:31;17.99;61.79
67279;DHT22;54193;53.746;10.058;2022-07-23T17:17:17;17.76;62.42
67279;DHT22;54193;53.746;10.058;2022-07-23T17:20:04;17.85;62.74
67279;DHT22;54193;53.746;10.058;2022-07-23T17:22:51;17.68;63.22
67279;DHT22;54193;53.746;10.058;2022-07-23T17:25:36;17.63;64.97
67279;DHT22;54193;53.746;10.058;2022-07-23T17:28:22;17.62;64.50
67279;DHT22;54193;53.746;10.058;2022-07-23T17:31:08;17.55;64.35